sensor_id;sensor_type;location;lat;lon;timestamp;pressure;altitude;pressure_sealevel;temperature;humidity
64886;BME280;51514;52.206;5.114;2023-03-22T00:01:24;100956.75;;;10.20;91.97
64886;BME280;51514;52.206;5.114;2023-03-22T00:03:53;100948.69;;;10.20;92.18
64886;BME280;51514;52.206;5.114;2023-03-22T00:06:18;100948.94;;;10.17;92.13
64886;BME280;51514;52.206;5.114;2023-03-22T00:08:44;100942.59;;;10.18;92.36
64886;BME280;51514;52.206;5.114;2023-03-22T00:11:10;100940.84;;;10.17;92.39
64886;BME280;51514;52.206;5.114;2023-03-22T00:13:36;100933.63;;;10.17;92.34
64886;BME280;51514;52.206;5.114;2023-03-22T00:16:03;100939.88;;;10.18;92.21
64886;BME280;51514;52.206;5.114;2023-03-22T00:18:29;100931.50;;;10.21;91.88
64886;BME280;51514;52.206;5.114;2023-03-22T00:20:56;100926.81;;;10.23;91.96
64886;BME280;51514;52.206;5.114;2023-03-22T00:23:23;100928.50;;;10.24;92.04
64886;BME280;51514;52.206;5.114;2023-03-22T00:25:49;100924.81;;;10.25;91.88
64886;BME280;51514;52.206;5.114;2023-03-22T00:28:15;100921.13;;;10.26;91.83
64886;BME280;51514;52.206;5.114;2023-03-22T00:30:41;100921.13;;;10.26;91.50
64886;BME280;51514;52.206;5.114;2023-03-22T00:33:07;100916.41;;;10.28;91.45
64886;BME280;51514;52.206;5.114;2023-03-22T00:35:32;100913.72;;;10.28;91.30
64886;BME280;51514;52.206;5.114;2023-03-22T00:37:58;100914.41;;;10.30;91.15
64886;BME280;51514;52.206;5.114;2023-03-22T00:40:31;100913.72;;;10.28;91.08
64886;BME280;51514;52.206;5.114;2023-03-22T00:42:57;100902.09;;;10.28;91.23
64886;BME280;51514;52.206;5.114;2023-03-22T00:45:23;100902.94;;;10.28;90.94
64886;BME280;51514;52.206;5.114;2023-03-22T00:47:48;100898.56;;;10.27;91.15
64886;BME280;51514;52.206;5.114;2023-03-22T00:50:14;100895.03;;;10.27;90.70
64886;BME280;51514;52.206;5.114;2023-03-22T00:52:39;100897.25;;;10.31;90.69
64886;BME280;51514;52.206;5.114;2023-03-22T00:55:05;100885.75;;;10.29;91.02
64886;BME280;51514;52.206;5.114;2023-03-22T00:57:30;100888.47;;;10.29;90.51
64886;BME280;51514;52.206;5.114;2023-03-22T00:59:55;100888.47;;;10.29;90.54
64886;BME280;51514;52.206;5.114;2023-03-22T01:02:22;100885.75;;;10.29;90.79
64886;BME280;51514;52.206;5.114;2023-03-22T01:04:54;100884.41;;;10.25;91.17
64886;BME280;51514;52.206;5.114;2023-03-22T01:07:20;100871.78;;;10.26;90.56
64886;BME280;51514;52.206;5.114;2023-03-22T01:09:48;100869.59;;;10.29;90.00
64886;BME280;51514;52.206;5.114;2023-03-22T01:12:14;100861.34;;;10.31;89.85
64886;BME280;51514;52.206;5.114;2023-03-22T01:14:39;100861.91;;;10.34;89.96
64886;BME280;51514;52.206;5.114;2023-03-22T01:17:06;100861.59;;;10.37;89.59
64886;BME280;51514;52.206;5.114;2023-03-22T01:19:32;100849.81;;;10.38;89.32
64886;BME280;51514;52.206;5.114;2023-03-22T01:21:57;100840.22;;;10.44;89.10
64886;BME280;51514;52.206;5.114;2023-03-22T01:24:23;100835.38;;;10.47;89.10
64886;BME280;51514;52.206;5.114;2023-03-22T01:26:48;100827.28;;;10.47;88.89
64886;BME280;51514;52.206;5.114;2023-03-22T01:29:14;100832.53;;;10.49;88.91
64886;BME280;51514;52.206;5.114;2023-03-22T01:31:39;100828.16;;;10.48;87.98
64886;BME280;51514;52.206;5.114;2023-03-22T01:34:05;100825.81;;;10.53;88.15
64886;BME280;51514;52.206;5.114;2023-03-22T01:36:30;100822.09;;;10.54;87.41
64886;BME280;51514;52.206;5.114;2023-03-22T01:38:55;100802.22;;;10.55;87.38
64886;BME280;51514;52.206;5.114;2023-03-22T01:41:21;100808.16;;;10.58;87.46
64886;BME280;51514;52.206;5.114;2023-03-22T01:44:07;100804.78;;;10.56;86.81
64886;BME280;51514;52.206;5.114;2023-03-22T01:46:32;100796.00;;;10.54;86.68
64886;BME280;51514;52.206;5.114;2023-03-22T01:48:59;100800.06;;;10.58;86.42
64886;BME280;51514;52.206;5.114;2023-03-22T01:51:26;100788.44;;;10.58;86.56
64886;BME280;51514;52.206;5.114;2023-03-22T01:53:54;100784.19;;;10.55;85.96
64886;BME280;51514;52.206;5.114;2023-03-22T01:56:22;100777.81;;;10.56;85.98
64886;BME280;51514;52.206;5.114;2023-03-22T01:58:49;100774.41;;;10.54;86.07
64886;BME280;51514;52.206;5.114;2023-03-22T02:01:17;100773.56;;;10.54;85.72
64886;BME280;51514;52.206;5.114;2023-03-22T02:03:52;100760.94;;;10.54;85.71
64886;BME280;51514;52.206;5.114;2023-03-22T02:06:19;100769.03;;;10.54;85.55
64886;BME280;51514;52.206;5.114;2023-03-22T02:08:45;100755.72;;;10.53;85.45
64886;BME280;51514;52.206;5.114;2023-03-22T02:11:28;100748.63;;;10.52;85.51
64886;BME280;51514;52.206;5.114;2023-03-22T02:22:23;100739.75;;;10.59;86.38
64886;BME280;51514;52.206;5.114;2023-03-22T02:33:51;100717.50;;;10.57;88.19
64886;BME280;51514;52.206;5.114;2023-03-22T02:42:00;100715.13;;;10.63;89.73
64886;BME280;51514;52.206;5.114;2023-03-22T02:47:07;100717.69;;;10.64;90.73
64886;BME280;51514;52.206;5.114;2023-03-22T02:49:44;100714.66;;;10.67;90.94
64886;BME280;51514;52.206;5.114;2023-03-22T02:55:03;100695.28;;;10.72;91.89
64886;BME280;51514;52.206;5.114;2023-03-22T02:57:47;100693.44;;;10.72;91.91
64886;BME280;51514;52.206;5.114;2023-03-22T03:00:16;100695.28;;;10.72;92.34
64886;BME280;51514;52.206;5.114;2023-03-22T03:02:52;100695.28;;;10.72;92.88
64886;BME280;51514;52.206;5.114;2023-03-22T03:05:20;100693.28;;;10.74;92.65
64886;BME280;51514;52.206;5.114;2023-03-22T03:07:51;100691.94;;;10.70;93.02
64886;BME280;51514;52.206;5.114;2023-03-22T03:10:19;100695.63;;;10.69;93.30
64886;BME280;51514;52.206;5.114;2023-03-22T03:12:46;100703.19;;;10.65;93.38
64886;BME280;51514;52.206;5.114;2023-03-22T03:15:14;100702.50;;;10.63;93.75
64886;BME280;51514;52.206;5.114;2023-03-22T03:18:09;100696.63;;;10.59;94.29
64886;BME280;51514;52.206;5.114;2023-03-22T03:23:43;100696.78;;;10.58;94.12
64886;BME280;51514;52.206;5.114;2023-03-22T03:26:39;100695.94;;;10.57;94.39
64886;BME280;51514;52.206;5.114;2023-03-22T03:31:45;100694.22;;;10.56;95.10
64886;BME280;51514;52.206;5.114;2023-03-22T03:34:14;100698.09;;;10.54;95.27
64886;BME280;51514;52.206;5.114;2023-03-22T03:37:05;100682.75;;;10.54;95.24
64886;BME280;51514;52.206;5.114;2023-03-22T03:39:36;100680.91;;;10.55;95.54
64886;BME280;51514;52.206;5.114;2023-03-22T03:42:04;100683.28;;;10.58;95.38
64886;BME280;51514;52.206;5.114;2023-03-22T03:44:31;100679.75;;;10.57;95.42
64886;BME280;51514;52.206;5.114;2023-03-22T03:47:01;100681.25;;;10.60;95.55
64886;BME280;51514;52.206;5.114;2023-03-22T03:49:27;100689.19;;;10.61;95.28
64886;BME280;51514;52.206;5.114;2023-03-22T03:51:53;100689.03;;;10.63;95.39
64886;BME280;51514;52.206;5.114;2023-03-22T03:54:21;100688.34;;;10.61;95.62
64886;BME280;51514;52.206;5.114;2023-03-22T03:56:47;100691.88;;;10.61;95.79
64886;BME280;51514;52.206;5.114;2023-03-22T03:59:17;100687.34;;;10.62;95.82
64886;BME280;51514;52.206;5.114;2023-03-22T04:01:43;100679.41;;;10.60;95.96
64886;BME280;51514;52.206;5.114;2023-03-22T04:04:22;100686.50;;;10.61;95.96
64886;BME280;51514;52.206;5.114;2023-03-22T04:06:58;100682.09;;;10.60;96.14
64886;BME280;51514;52.206;5.114;2023-03-22T04:09:25;100680.25;;;10.61;95.89
64886;BME280;51514;52.206;5.114;2023-03-22T04:11:52;100678.41;;;10.61;96.20
64886;BME280;51514;52.206;5.114;2023-03-22T04:14:18;100679.09;;;10.64;96.43
64886;BME280;51514;52.206;5.114;2023-03-22T04:16:43;100682.63;;;10.64;96.32
64886;BME280;51514;52.206;5.114;2023-03-22T04:19:09;100668.13;;;10.65;96.22
64886;BME280;51514;52.206;5.114;2023-03-22T04:21:34;100666.44;;;10.64;95.92
64886;BME280;51514;52.206;5.114;2023-03-22T04:24:00;100668.97;;;10.66;96.01
64886;BME280;51514;52.206;5.114;2023-03-22T04:26:25;100664.59;;;10.65;96.12
64886;BME280;51514;52.206;5.114;2023-03-22T04:28:50;100663.59;;;10.66;95.90
64886;BME280;51514;52.206;5.114;2023-03-22T04:31:16;100657.34;;;10.65;95.99
64886;BME280;51514;52.206;5.114;2023-03-22T04:33:42;100660.06;;;10.65;96.17
64886;BME280;51514;52.206;5.114;2023-03-22T04:36:11;100653.66;;;10.66;95.97
64886;BME280;51514;52.206;5.114;2023-03-22T04:38:40;100654.50;;;10.67;95.88
64886;BME280;51514;52.206;5.114;2023-03-22T04:41:06;100659.03;;;10.66;95.90
64886;BME280;51514;52.206;5.114;2023-03-22T04:43:32;100663.28;;;10.69;95.82
64886;BME280;51514;52.206;5.114;2023-03-22T04:46:00;100656.03;;;10.69;95.73
64886;BME280;51514;52.206;5.114;2023-03-22T04:48:26;100657.53;;;10.72;95.91
64886;BME280;51514;52.206;5.114;2023-03-22T04:50:52;100649.44;;;10.72;95.58
64886;BME280;51514;52.206;5.114;2023-03-22T04:53:17;100641.34;;;10.72;95.44
64886;BME280;51514;52.206;5.114;2023-03-22T04:55:43;100640.00;;;10.68;95.66
64886;BME280;51514;52.206;5.114;2023-03-22T04:58:09;100634.28;;;10.71;95.26
64886;BME280;51514;52.206;5.114;2023-03-22T05:00:35;100634.94;;;10.73;95.42
64886;BME280;51514;52.206;5.114;2023-03-22T05:03:02;100632.94;;;10.75;95.16
64886;BME280;51514;52.206;5.114;2023-03-22T05:05:28;100628.56;;;10.74;95.05
64886;BME280;51514;52.206;5.114;2023-03-22T05:07:53;100627.72;;;10.73;95.19
64886;BME280;51514;52.206;5.114;2023-03-22T05:10:20;100629.72;;;10.71;95.16
64886;BME280;51514;52.206;5.114;2023-03-22T05:12:46;100623.50;;;10.71;94.79
64886;BME280;51514;52.206;5.114;2023-03-22T05:15:12;100626.38;;;10.69;94.68
64886;BME280;51514;52.206;5.114;2023-03-22T05:17:37;100637.16;;;10.69;94.92
64886;BME280;51514;52.206;5.114;2023-03-22T05:20:03;100628.38;;;10.67;94.58
64886;BME280;51514;52.206;5.114;2023-03-22T05:22:34;100629.22;;;10.68;94.76
64886;BME280;51514;52.206;5.114;2023-03-22T05:25:03;100627.53;;;10.67;94.39
64886;BME280;51514;52.206;5.114;2023-03-22T05:27:28;100626.69;;;10.66;94.49
64886;BME280;51514;52.206;5.114;2023-03-22T05:29:59;100628.53;;;10.66;94.71
64886;BME280;51514;52.206;5.114;2023-03-22T05:32:24;100619.44;;;10.67;94.76
64886;BME280;51514;52.206;5.114;2023-03-22T05:34:53;100620.44;;;10.66;94.49
64886;BME280;51514;52.206;5.114;2023-03-22T05:37:19;100617.75;;;10.66;94.81
64886;BME280;51514;52.206;5.114;2023-03-22T05:39:45;100624.00;;;10.66;94.61
64886;BME280;51514;52.206;5.114;2023-03-22T05:42:10;100610.84;;;10.63;94.59
64886;BME280;51514;52.206;5.114;2023-03-22T05:44:36;100615.06;;;10.66;94.32
64886;BME280;51514;52.206;5.114;2023-03-22T05:47:01;100602.25;;;10.68;93.99
64886;BME280;51514;52.206;5.114;2023-03-22T05:49:26;100602.75;;;10.71;93.89
64886;BME280;51514;52.206;5.114;2023-03-22T05:51:52;100608.50;;;10.68;93.83
64886;BME280;51514;52.206;5.114;2023-03-22T05:54:17;100601.41;;;10.67;93.97
64886;BME280;51514;52.206;5.114;2023-03-22T05:56:42;100598.56;;;10.69;93.38
64886;BME280;51514;52.206;5.114;2023-03-22T05:59:08;100592.16;;;10.70;93.32
64886;BME280;51514;52.206;5.114;2023-03-22T06:01:33;100598.19;;;10.72;93.37
64886;BME280;51514;52.206;5.114;2023-03-22T06:03:59;100593.16;;;10.69;93.01
64886;BME280;51514;52.206;5.114;2023-03-22T06:06:24;100599.72;;;10.66;92.90
64886;BME280;51514;52.206;5.114;2023-03-22T06:08:52;100592.16;;;10.70;93.07
64886;BME280;51514;52.206;5.114;2023-03-22T06:11:17;100591.47;;;10.68;92.84
64886;BME280;51514;52.206;5.114;2023-03-22T06:13:43;100601.25;;;10.69;92.99
64886;BME280;51514;52.206;5.114;2023-03-22T06:16:08;100599.72;;;10.74;92.51
64886;BME280;51514;52.206;5.114;2023-03-22T06:18:34;100601.25;;;10.77;92.27
64886;BME280;51514;52.206;5.114;2023-03-22T06:20:59;100603.63;;;10.80;92.52
64886;BME280;51514;52.206;5.114;2023-03-22T06:23:25;100600.59;;;10.83;91.90
64886;BME280;51514;52.206;5.114;2023-03-22T06:25:50;100600.25;;;10.86;91.70
64886;BME280;51514;52.206;5.114;2023-03-22T06:28:15;100597.91;;;10.91;91.32
64886;BME280;51514;52.206;5.114;2023-03-22T06:30:41;100604.16;;;10.91;91.43
64886;BME280;51514;52.206;5.114;2023-03-22T06:33:06;100611.41;;;10.91;91.37
64886;BME280;51514;52.206;5.114;2023-03-22T06:35:32;100605.81;;;10.92;91.27
64886;BME280;51514;52.206;5.114;2023-03-22T06:37:58;100606.34;;;10.96;91.04
64886;BME280;51514;52.206;5.114;2023-03-22T06:40:24;100603.84;;;11.03;91.02
64886;BME280;51514;52.206;5.114;2023-03-22T06:42:49;100604.00;;;11.09;90.43
64886;BME280;51514;52.206;5.114;2023-03-22T06:45:15;100605.34;;;11.13;90.38
64886;BME280;51514;52.206;5.114;2023-03-22T06:47:41;100598.44;;;11.19;89.33
64886;BME280;51514;52.206;5.114;2023-03-22T06:50:07;100607.38;;;11.19;88.94
64886;BME280;51514;52.206;5.114;2023-03-22T06:52:33;100599.94;;;11.21;88.89
64886;BME280;51514;52.206;5.114;2023-03-22T06:54:58;100602.81;;;11.20;88.27
64886;BME280;51514;52.206;5.114;2023-03-22T06:57:23;100591.34;;;11.18;88.96
64886;BME280;51514;52.206;5.114;2023-03-22T06:59:49;100600.81;;;11.14;88.19
64886;BME280;51514;52.206;5.114;2023-03-22T07:02:14;100595.56;;;11.12;88.52
64886;BME280;51514;52.206;5.114;2023-03-22T07:04:39;100605.00;;;11.08;88.39
64886;BME280;51514;52.206;5.114;2023-03-22T07:07:05;100595.91;;;11.09;88.64
64886;BME280;51514;52.206;5.114;2023-03-22T07:09:30;100607.03;;;11.06;88.57
64886;BME280;51514;52.206;5.114;2023-03-22T07:11:56;100598.44;;;11.03;87.89
64886;BME280;51514;52.206;5.114;2023-03-22T07:14:21;100598.94;;;11.06;88.17
64886;BME280;51514;52.206;5.114;2023-03-22T07:16:46;100599.09;;;11.05;88.49
64886;BME280;51514;52.206;5.114;2023-03-22T07:19:12;100603.00;;;11.02;88.22
64886;BME280;51514;52.206;5.114;2023-03-22T07:21:37;100600.94;;;11.04;88.46
64886;BME280;51514;52.206;5.114;2023-03-22T07:24:02;100593.88;;;11.11;88.25
64886;BME280;51514;52.206;5.114;2023-03-22T07:26:28;100586.78;;;11.10;88.27
64886;BME280;51514;52.206;5.114;2023-03-22T07:28:55;100588.97;;;11.15;87.60
64886;BME280;51514;52.206;5.114;2023-03-22T07:31:20;100593.38;;;11.24;87.52
64886;BME280;51514;52.206;5.114;2023-03-22T07:33:46;100601.78;;;11.29;87.55
64886;BME280;51514;52.206;5.114;2023-03-22T07:36:12;100590.84;;;11.30;87.38
64886;BME280;51514;52.206;5.114;2023-03-22T07:38:38;100594.53;;;11.38;86.55
64886;BME280;51514;52.206;5.114;2023-03-22T07:41:04;100581.72;;;11.40;86.04
64886;BME280;51514;52.206;5.114;2023-03-22T07:43:29;100585.44;;;11.39;86.39
64886;BME280;51514;52.206;5.114;2023-03-22T07:45:55;100573.97;;;11.45;86.62
64886;BME280;51514;52.206;5.114;2023-03-22T07:48:21;100584.41;;;11.48;85.70
64886;BME280;51514;52.206;5.114;2023-03-22T07:50:46;100584.41;;;11.48;86.10
64886;BME280;51514;52.206;5.114;2023-03-22T07:53:12;100586.63;;;11.44;85.68
64886;BME280;51514;52.206;5.114;2023-03-22T07:55:37;100590.31;;;11.51;85.94
64886;BME280;51514;52.206;5.114;2023-03-22T07:58:04;100588.28;;;11.53;85.30
64886;BME280;51514;52.206;5.114;2023-03-22T08:00:30;100582.56;;;11.56;85.46
64886;BME280;51514;52.206;5.114;2023-03-22T08:02:55;100581.50;;;11.57;85.11
64886;BME280;51514;52.206;5.114;2023-03-22T08:05:21;100585.56;;;11.61;85.02
64886;BME280;51514;52.206;5.114;2023-03-22T08:07:47;100591.13;;;11.68;85.25
64886;BME280;51514;52.206;5.114;2023-03-22T08:10:13;100587.41;;;11.61;84.30
64886;BME280;51514;52.206;5.114;2023-03-22T08:12:38;100588.06;;;11.71;85.00
64886;BME280;51514;52.206;5.114;2023-03-22T08:15:05;100592.78;;;11.69;84.63
64886;BME280;51514;52.206;5.114;2023-03-22T08:17:30;100591.94;;;11.68;84.43
64886;BME280;51514;52.206;5.114;2023-03-22T08:19:56;100591.63;;;11.71;85.05
64886;BME280;51514;52.206;5.114;2023-03-22T08:22:22;100591.44;;;11.73;84.88
64886;BME280;51514;52.206;5.114;2023-03-22T08:24:50;100597.69;;;11.82;85.33
64886;BME280;51514;52.206;5.114;2023-03-22T08:27:15;100595.84;;;11.82;85.25
64886;BME280;51514;52.206;5.114;2023-03-22T08:29:41;100589.41;;;11.83;85.00
64886;BME280;51514;52.206;5.114;2023-03-22T08:32:07;100593.66;;;11.86;85.08
64886;BME280;51514;52.206;5.114;2023-03-22T08:34:36;100584.53;;;11.87;84.66
64886;BME280;51514;52.206;5.114;2023-03-22T08:37:03;100581.00;;;11.78;84.47
64886;BME280;51514;52.206;5.114;2023-03-22T08:39:29;100576.75;;;11.84;84.56
64886;BME280;51514;52.206;5.114;2023-03-22T08:41:55;100586.88;;;11.82;84.47
64886;BME280;51514;52.206;5.114;2023-03-22T08:44:20;100572.91;;;11.78;84.09
64886;BME280;51514;52.206;5.114;2023-03-22T08:46:45;100575.94;;;11.75;83.95
64886;BME280;51514;52.206;5.114;2023-03-22T08:49:10;100578.66;;;11.75;85.08
64886;BME280;51514;52.206;5.114;2023-03-22T08:51:36;100584.88;;;11.67;85.33
64886;BME280;51514;52.206;5.114;2023-03-22T08:54:01;100579.81;;;11.64;86.91
64886;BME280;51514;52.206;5.114;2023-03-22T08:56:28;100589.13;;;11.54;87.63
64886;BME280;51514;52.206;5.114;2023-03-22T08:58:53;100589.97;;;11.54;87.81
64886;BME280;51514;52.206;5.114;2023-03-22T09:01:19;100594.69;;;11.52;89.64
64886;BME280;51514;52.206;5.114;2023-03-22T09:03:45;100581.69;;;11.48;89.54
64886;BME280;51514;52.206;5.114;2023-03-22T09:06:11;100592.50;;;11.40;90.45
64886;BME280;51514;52.206;5.114;2023-03-22T09:08:37;100592.84;;;11.45;90.14
64886;BME280;51514;52.206;5.114;2023-03-22T09:11:03;100592.84;;;11.37;90.25
64886;BME280;51514;52.206;5.114;2023-03-22T09:13:28;100578.34;;;11.38;91.26
64886;BME280;51514;52.206;5.114;2023-03-22T09:15:57;100592.00;;;11.36;91.40
64886;BME280;51514;52.206;5.114;2023-03-22T09:18:23;100580.72;;;11.32;91.56
64886;BME280;51514;52.206;5.114;2023-03-22T09:20:49;100589.16;;;11.21;91.95
64886;BME280;51514;52.206;5.114;2023-03-22T09:23:15;100579.69;;;11.17;92.54
64886;BME280;51514;52.206;5.114;2023-03-22T09:25:45;100586.09;;;11.16;92.88
64886;BME280;51514;52.206;5.114;2023-03-22T09:28:11;100567.91;;;11.10;94.31
64886;BME280;51514;52.206;5.114;2023-03-22T09:30:36;100580.41;;;11.03;94.76
64886;BME280;51514;52.206;5.114;2023-03-22T09:33:02;100577.50;;;11.05;95.22
64886;BME280;51514;52.206;5.114;2023-03-22T09:35:28;100566.53;;;11.06;95.09
64886;BME280;51514;52.206;5.114;2023-03-22T09:37:53;100584.59;;;11.06;95.83
64886;BME280;51514;52.206;5.114;2023-03-22T09:40:24;100586.13;;;11.00;95.94
64886;BME280;51514;52.206;5.114;2023-03-22T09:42:54;100577.50;;;10.96;96.01
64886;BME280;51514;52.206;5.114;2023-03-22T09:45:24;100583.44;;;10.92;96.82
64886;BME280;51514;52.206;5.114;2023-03-22T09:47:57;100583.59;;;10.90;97.46
64886;BME280;51514;52.206;5.114;2023-03-22T09:50:26;100583.41;;;10.84;97.02
64886;BME280;51514;52.206;5.114;2023-03-22T09:52:54;100572.97;;;10.89;97.63
64886;BME280;51514;52.206;5.114;2023-03-22T09:58:00;100597.72;;;10.84;99.42
64886;BME280;51514;52.206;5.114;2023-03-22T10:00:40;100592.31;;;10.84;99.81
64886;BME280;51514;52.206;5.114;2023-03-22T10:08:38;100582.75;;;10.90;100.00
64886;BME280;51514;52.206;5.114;2023-03-22T10:11:12;100579.19;;;10.89;100.00
64886;BME280;51514;52.206;5.114;2023-03-22T10:13:40;100574.81;;;10.96;100.00
64886;BME280;51514;52.206;5.114;2023-03-22T10:16:24;100587.13;;;10.91;100.00
64886;BME280;51514;52.206;5.114;2023-03-22T10:18:53;100583.22;;;10.93;100.00
64886;BME280;51514;52.206;5.114;2023-03-22T10:21:22;100588.47;;;10.95;100.00
64886;BME280;51514;52.206;5.114;2023-03-22T10:24:00;100587.13;;;10.91;99.66
64886;BME280;51514;52.206;5.114;2023-03-22T10:26:29;100584.75;;;10.88;100.00
64886;BME280;51514;52.206;5.114;2023-03-22T10:28:59;100579.19;;;10.89;100.00
64886;BME280;51514;52.206;5.114;2023-03-22T10:31:29;100597.25;;;10.89;100.00
64886;BME280;51514;52.206;5.114;2023-03-22T10:34:01;100591.31;;;10.85;100.00
64886;BME280;51514;52.206;5.114;2023-03-22T10:36:30;100598.72;;;10.83;100.00
64886;BME280;51514;52.206;5.114;2023-03-22T10:41:43;100586.44;;;10.89;100.00
64886;BME280;51514;52.206;5.114;2023-03-22T10:44:14;100589.47;;;10.86;100.00
64886;BME280;51514;52.206;5.114;2023-03-22T10:46:43;100582.91;;;10.88;100.00
64886;BME280;51514;52.206;5.114;2023-03-22T10:49:36;100573.97;;;10.88;100.00
64886;BME280;51514;52.206;5.114;2023-03-22T10:52:40;100560.81;;;10.93;100.00
64886;BME280;51514;52.206;5.114;2023-03-22T10:55:12;100558.63;;;10.96;100.00
64886;BME280;51514;52.206;5.114;2023-03-22T10:57:38;100559.16;;;11.00;100.00
64886;BME280;51514;52.206;5.114;2023-03-22T11:00:05;100561.31;;;11.05;100.00
64886;BME280;51514;52.206;5.114;2023-03-22T11:02:50;100547.50;;;11.08;100.00
64886;BME280;51514;52.206;5.114;2023-03-22T11:05:26;100572.78;;;11.15;100.00
64886;BME280;51514;52.206;5.114;2023-03-22T11:07:53;100571.28;;;11.20;100.00
64886;BME280;51514;52.206;5.114;2023-03-22T11:10:26;100570.94;;;11.23;100.00
64886;BME280;51514;52.206;5.114;2023-03-22T11:13:18;100578.03;;;11.24;100.00
64886;BME280;51514;52.206;5.114;2023-03-22T11:15:59;100547.66;;;11.22;100.00
64886;BME280;51514;52.206;5.114;2023-03-22T11:18:31;100556.06;;;11.27;100.00
64886;BME280;51514;52.206;5.114;2023-03-22T11:21:06;100557.44;;;11.31;100.00
64886;BME280;51514;52.206;5.114;2023-03-22T11:23:34;100564.34;;;11.34;100.00
64886;BME280;51514;52.206;5.114;2023-03-22T11:26:13;100565.19;;;11.34;100.00
64886;BME280;51514;52.206;5.114;2023-03-22T11:28:48;100559.78;;;11.43;100.00
64886;BME280;51514;52.206;5.114;2023-03-22T11:31:16;100577.31;;;11.47;100.00
64886;BME280;51514;52.206;5.114;2023-03-22T11:33:59;100582.38;;;11.50;99.53
64886;BME280;51514;52.206;5.114;2023-03-22T11:36:26;100589.47;;;11.51;98.93
64886;BME280;51514;52.206;5.114;2023-03-22T11:38:58;100592.69;;;11.46;97.54
64886;BME280;51514;52.206;5.114;2023-03-22T11:41:29;100592.00;;;11.44;97.73
64886;BME280;51514;52.206;5.114;2023-03-22T11:43:59;100605.69;;;11.43;97.64
64886;BME280;51514;52.206;5.114;2023-03-22T11:46:26;100604.00;;;11.42;96.65
64886;BME280;51514;52.206;5.114;2023-03-22T11:48:57;100598.25;;;11.37;96.91
64886;BME280;51514;52.206;5.114;2023-03-22T11:51:30;100603.63;;;11.37;97.93
64886;BME280;51514;52.206;5.114;2023-03-22T11:54:09;100602.97;;;11.43;97.86
64886;BME280;51514;52.206;5.114;2023-03-22T11:56:46;100596.72;;;11.42;97.30
64886;BME280;51514;52.206;5.114;2023-03-22T11:59:22;100590.81;;;11.39;96.66
64886;BME280;51514;52.206;5.114;2023-03-22T12:01:49;100596.72;;;11.42;97.06
64886;BME280;51514;52.206;5.114;2023-03-22T12:04:23;100590.16;;;11.45;96.96
64886;BME280;51514;52.206;5.114;2023-03-22T12:06:57;100589.16;;;11.46;95.58
64886;BME280;51514;52.206;5.114;2023-03-22T12:11:55;100594.88;;;11.51;95.69
64886;BME280;51514;52.206;5.114;2023-03-22T12:14:51;100596.56;;;11.52;96.33
64886;BME280;51514;52.206;5.114;2023-03-22T12:17:25;100592.84;;;11.53;96.19
64886;BME280;51514;52.206;5.114;2023-03-22T12:20:28;100594.88;;;11.51;95.85
64886;BME280;51514;52.206;5.114;2023-03-22T12:22:55;100592.84;;;11.53;95.54
64886;BME280;51514;52.206;5.114;2023-03-22T12:25:24;100593.34;;;11.56;95.92
64886;BME280;51514;52.206;5.114;2023-03-22T12:27:57;100595.69;;;11.59;95.96
64886;BME280;51514;52.206;5.114;2023-03-22T12:30:26;100593.66;;;11.61;95.93
64886;BME280;51514;52.206;5.114;2023-03-22T12:33:15;100584.72;;;11.61;95.25
64886;BME280;51514;52.206;5.114;2023-03-22T12:35:44;100579.66;;;11.66;95.82
64886;BME280;51514;52.206;5.114;2023-03-22T12:38:30;100582.00;;;11.61;95.80
64886;BME280;51514;52.206;5.114;2023-03-22T12:41:02;100567.84;;;11.67;95.40
64886;BME280;51514;52.206;5.114;2023-03-22T12:43:43;100568.50;;;11.61;95.92
64886;BME280;51514;52.206;5.114;2023-03-22T12:46:17;100566.16;;;11.66;96.71
64886;BME280;51514;52.206;5.114;2023-03-22T12:51:47;100561.56;;;11.75;96.65
64886;BME280;51514;52.206;5.114;2023-03-22T12:54:16;100565.81;;;11.77;96.58
64886;BME280;51514;52.206;5.114;2023-03-22T12:56:44;100572.22;;;11.76;95.48
64886;BME280;51514;52.206;5.114;2023-03-22T12:59:19;100572.22;;;11.76;95.83
64886;BME280;51514;52.206;5.114;2023-03-22T13:01:57;100578.31;;;11.78;96.29
64886;BME280;51514;52.206;5.114;2023-03-22T13:17:31;100578.63;;;11.83;95.82
64886;BME280;51514;52.206;5.114;2023-03-22T13:30:16;100570.44;;;12.07;94.56
64886;BME280;51514;52.206;5.114;2023-03-22T13:35:20;100564.00;;;12.09;93.48
64886;BME280;51514;52.206;5.114;2023-03-22T13:37:48;100566.34;;;12.12;93.67
64886;BME280;51514;52.206;5.114;2023-03-22T13:43:20;100555.91;;;12.09;93.48
64886;BME280;51514;52.206;5.114;2023-03-22T13:48:52;100558.56;;;12.17;93.73
64886;BME280;51514;52.206;5.114;2023-03-22T13:54:07;100566.00;;;12.15;93.87
64886;BME280;51514;52.206;5.114;2023-03-22T14:04:16;100552.09;;;12.26;95.30
64886;BME280;51514;52.206;5.114;2023-03-22T14:07:04;100544.84;;;12.26;94.92
64886;BME280;51514;52.206;5.114;2023-03-22T14:09:42;100541.94;;;12.28;95.19
64886;BME280;51514;52.206;5.114;2023-03-22T14:12:21;100535.69;;;12.27;94.70
64886;BME280;51514;52.206;5.114;2023-03-22T14:14:50;100534.19;;;12.25;94.94
64886;BME280;51514;52.206;5.114;2023-03-22T14:17:30;100535.53;;;12.29;94.57
64886;BME280;51514;52.206;5.114;2023-03-22T14:19:59;100528.25;;;12.29;94.53
64886;BME280;51514;52.206;5.114;2023-03-22T14:22:34;100525.69;;;12.36;94.79
64886;BME280;51514;52.206;5.114;2023-03-22T14:25:03;100532.25;;;12.41;94.56
64886;BME280;51514;52.206;5.114;2023-03-22T14:27:32;100512.09;;;12.44;93.58
64886;BME280;51514;52.206;5.114;2023-03-22T14:29:57;100515.31;;;12.48;93.91